sensor_id;sensor_type;location;lat;lon;timestamp;P1;durP1;ratioP1;P2;durP2;ratioP2
71655;SDS011;59497;48.798;8.816;2023-05-10T00:01:38;0.40;;;0.27;;
71655;SDS011;59497;48.798;8.816;2023-05-10T00:04:03;1.60;;;0.20;;
71655;SDS011;59497;48.798;8.816;2023-05-10T00:06:29;0.70;;;0.20;;
71655;SDS011;59497;48.798;8.816;2023-05-10T00:08:54;0.20;;;0.20;;
71655;SDS011;59497;48.798;8.816;2023-05-10T00:11:20;0.83;;;0.10;;
71655;SDS011;59497;48.798;8.816;2023-05-10T00:13:45;0.20;;;0.20;;
71655;SDS011;59497;48.798;8.816;2023-05-10T00:16:10;0.23;;;0.10;;
71655;SDS011;59497;48.798;8.816;2023-05-10T00:18:37;0.00;;;0.00;;
71655;SDS011;59497;48.798;8.816;2023-05-10T00:21:03;0.67;;;0.20;;
71655;SDS011;59497;48.798;8.816;2023-05-10T00:23:28;0.20;;;0.20;;
71655;SDS011;59497;48.798;8.816;2023-05-10T00:25:53;0.43;;;0.40;;
71655;SDS011;59497;48.798;8.816;2023-05-10T00:28:18;0.10;;;0.10;;
71655;SDS011;59497;48.798;8.816;2023-05-10T00:30:43;0.10;;;0.10;;
71655;SDS011;59497;48.798;8.816;2023-05-10T00:33:09;0.23;;;0.23;;
71655;SDS011;59497;48.798;8.816;2023-05-10T00:35:34;1.23;;;0.23;;
71655;SDS011;59497;48.798;8.816;2023-05-10T00:37:59;0.40;;;0.20;;
71655;SDS011;59497;48.798;8.816;2023-05-10T00:40:24;0.30;;;0.20;;
71655;SDS011;59497;48.798;8.816;2023-05-10T00:42:50;0.20;;;0.20;;
71655;SDS011;59497;48.798;8.816;2023-05-10T00:45:15;0.40;;;0.20;;
71655;SDS011;59497;48.798;8.816;2023-05-10T00:47:40;0.30;;;0.30;;
71655;SDS011;59497;48.798;8.816;2023-05-10T00:50:06;0.17;;;0.17;;
71655;SDS011;59497;48.798;8.816;2023-05-10T00:52:31;0.27;;;0.27;;
71655;SDS011;59497;48.798;8.816;2023-05-10T00:54:57;0.30;;;0.30;;
71655;SDS011;59497;48.798;8.816;2023-05-10T00:57:22;0.53;;;0.40;;
71655;SDS011;59497;48.798;8.816;2023-05-10T00:59:47;0.40;;;0.20;;
71655;SDS011;59497;48.798;8.816;2023-05-10T01:02:13;0.47;;;0.47;;
71655;SDS011;59497;48.798;8.816;2023-05-10T01:04:38;0.40;;;0.40;;
71655;SDS011;59497;48.798;8.816;2023-05-10T01:07:03;0.30;;;0.30;;
71655;SDS011;59497;48.798;8.816;2023-05-10T01:09:28;0.33;;;0.33;;
71655;SDS011;59497;48.798;8.816;2023-05-10T01:11:53;0.63;;;0.23;;
71655;SDS011;59497;48.798;8.816;2023-05-10T01:14:19;0.20;;;0.20;;
71655;SDS011;59497;48.798;8.816;2023-05-10T01:16:45;0.20;;;0.00;;
71655;SDS011;59497;48.798;8.816;2023-05-10T01:19:19;0.30;;;0.10;;
71655;SDS011;59497;48.798;8.816;2023-05-10T01:35:21;0.52;;;0.22;;
71655;SDS011;59497;48.798;8.816;2023-05-10T01:37:59;0.20;;;0.20;;
71655;SDS011;59497;48.798;8.816;2023-05-10T01:42:54;0.38;;;0.30;;
71655;SDS011;59497;48.798;8.816;2023-05-10T01:45:26;0.98;;;0.35;;
71655;SDS011;59497;48.798;8.816;2023-05-10T01:48:02;0.60;;;0.40;;
71655;SDS011;59497;48.798;8.816;2023-05-10T01:50:29;0.40;;;0.40;;
71655;SDS011;59497;48.798;8.816;2023-05-10T01:52:55;0.90;;;0.20;;
71655;SDS011;59497;48.798;8.816;2023-05-10T01:55:22;0.30;;;0.20;;
71655;SDS011;59497;48.798;8.816;2023-05-10T01:57:51;0.40;;;0.30;;
71655;SDS011;59497;48.798;8.816;2023-05-10T02:00:17;0.80;;;0.40;;
71655;SDS011;59497;48.798;8.816;2023-05-10T02:02:47;0.50;;;0.40;;
71655;SDS011;59497;48.798;8.816;2023-05-10T02:05:13;1.15;;;0.63;;
71655;SDS011;59497;48.798;8.816;2023-05-10T02:07:39;0.87;;;0.50;;
71655;SDS011;59497;48.798;8.816;2023-05-10T02:10:06;0.90;;;0.70;;
71655;SDS011;59497;48.798;8.816;2023-05-10T02:12:32;0.90;;;0.40;;
71655;SDS011;59497;48.798;8.816;2023-05-10T02:15:00;0.52;;;0.30;;
71655;SDS011;59497;48.798;8.816;2023-05-10T02:17:26;0.50;;;0.40;;
71655;SDS011;59497;48.798;8.816;2023-05-10T02:19:52;0.65;;;0.50;;
71655;SDS011;59497;48.798;8.816;2023-05-10T02:22:18;1.63;;;0.45;;
71655;SDS011;59497;48.798;8.816;2023-05-10T02:24:44;0.93;;;0.50;;
71655;SDS011;59497;48.798;8.816;2023-05-10T02:27:11;1.05;;;0.60;;
71655;SDS011;59497;48.798;8.816;2023-05-10T02:29:37;0.45;;;0.40;;
71655;SDS011;59497;48.798;8.816;2023-05-10T02:32:03;0.37;;;0.33;;
71655;SDS011;59497;48.798;8.816;2023-05-10T02:34:28;1.48;;;0.70;;
71655;SDS011;59497;48.798;8.816;2023-05-10T02:36:54;0.90;;;0.67;;
71655;SDS011;59497;48.798;8.816;2023-05-10T02:39:21;0.90;;;0.65;;
71655;SDS011;59497;48.798;8.816;2023-05-10T02:41:46;1.00;;;0.80;;
71655;SDS011;59497;48.798;8.816;2023-05-10T02:44:13;1.13;;;0.73;;
71655;SDS011;59497;48.798;8.816;2023-05-10T02:46:39;1.38;;;1.27;;
71655;SDS011;59497;48.798;8.816;2023-05-10T02:49:04;1.10;;;1.00;;
71655;SDS011;59497;48.798;8.816;2023-05-10T02:51:31;1.85;;;1.13;;
71655;SDS011;59497;48.798;8.816;2023-05-10T02:53:57;1.85;;;1.10;;
71655;SDS011;59497;48.798;8.816;2023-05-10T02:56:25;1.33;;;1.20;;
71655;SDS011;59497;48.798;8.816;2023-05-10T02:58:53;1.20;;;1.10;;
71655;SDS011;59497;48.798;8.816;2023-05-10T03:01:18;1.10;;;1.00;;
71655;SDS011;59497;48.798;8.816;2023-05-10T03:03:43;1.50;;;1.10;;
71655;SDS011;59497;48.798;8.816;2023-05-10T03:06:09;2.05;;;1.55;;
71655;SDS011;59497;48.798;8.816;2023-05-10T03:08:34;3.20;;;1.10;;
71655;SDS011;59497;48.798;8.816;2023-05-10T03:11:08;2.07;;;1.17;;
71655;SDS011;59497;48.798;8.816;2023-05-10T03:14:41;1.40;;;1.30;;
71655;SDS011;59497;48.798;8.816;2023-05-10T03:16:33;1.30;;;0.90;;
71655;SDS011;59497;48.798;8.816;2023-05-10T03:19:35;1.10;;;0.88;;
71655;SDS011;59497;48.798;8.816;2023-05-10T03:21:51;1.00;;;0.90;;
71655;SDS011;59497;48.798;8.816;2023-05-10T03:24:17;1.98;;;0.65;;
71655;SDS011;59497;48.798;8.816;2023-05-10T03:26:43;1.25;;;0.93;;
71655;SDS011;59497;48.798;8.816;2023-05-10T03:29:10;4.33;;;1.03;;
71655;SDS011;59497;48.798;8.816;2023-05-10T03:31:36;1.30;;;0.90;;
71655;SDS011;59497;48.798;8.816;2023-05-10T03:34:01;1.47;;;1.03;;
71655;SDS011;59497;48.798;8.816;2023-05-10T03:36:26;1.35;;;1.10;;
71655;SDS011;59497;48.798;8.816;2023-05-10T03:38:52;1.10;;;1.00;;
71655;SDS011;59497;48.798;8.816;2023-05-10T03:41:17;0.93;;;0.83;;
71655;SDS011;59497;48.798;8.816;2023-05-10T03:43:42;0.93;;;0.90;;
71655;SDS011;59497;48.798;8.816;2023-05-10T03:46:07;1.83;;;1.20;;
71655;SDS011;59497;48.798;8.816;2023-05-10T03:48:32;1.30;;;1.10;;
71655;SDS011;59497;48.798;8.816;2023-05-10T03:50:57;0.90;;;0.80;;
71655;SDS011;59497;48.798;8.816;2023-05-10T03:53:23;1.20;;;1.10;;
71655;SDS011;59497;48.798;8.816;2023-05-10T03:55:48;2.80;;;1.00;;
71655;SDS011;59497;48.798;8.816;2023-05-10T03:58:13;1.70;;;1.00;;
71655;SDS011;59497;48.798;8.816;2023-05-10T04:00:38;0.83;;;0.83;;
71655;SDS011;59497;48.798;8.816;2023-05-10T04:03:08;1.25;;;0.93;;
71655;SDS011;59497;48.798;8.816;2023-05-10T04:05:34;1.10;;;1.00;;
71655;SDS011;59497;48.798;8.816;2023-05-10T04:07:59;1.53;;;1.23;;
71655;SDS011;59497;48.798;8.816;2023-05-10T04:10:24;0.90;;;0.90;;
71655;SDS011;59497;48.798;8.816;2023-05-10T04:12:50;3.10;;;0.97;;
71655;SDS011;59497;48.798;8.816;2023-05-10T04:15:15;1.73;;;1.07;;
71655;SDS011;59497;48.798;8.816;2023-05-10T04:17:40;3.10;;;0.90;;
71655;SDS011;59497;48.798;8.816;2023-05-10T04:20:05;1.90;;;0.87;;
71655;SDS011;59497;48.798;8.816;2023-05-10T04:22:31;1.02;;;0.95;;
71655;SDS011;59497;48.798;8.816;2023-05-10T04:24:57;1.13;;;1.03;;
71655;SDS011;59497;48.798;8.816;2023-05-10T04:27:22;1.53;;;0.90;;
71655;SDS011;59497;48.798;8.816;2023-05-10T04:29:47;1.10;;;1.00;;
71655;SDS011;59497;48.798;8.816;2023-05-10T04:32:13;1.85;;;1.10;;
71655;SDS011;59497;48.798;8.816;2023-05-10T04:34:38;2.03;;;1.30;;
71655;SDS011;59497;48.798;8.816;2023-05-10T04:37:03;2.07;;;0.87;;
71655;SDS011;59497;48.798;8.816;2023-05-10T04:39:28;1.80;;;1.10;;
71655;SDS011;59497;48.798;8.816;2023-05-10T04:41:54;1.07;;;0.97;;
71655;SDS011;59497;48.798;8.816;2023-05-10T04:44:19;1.87;;;1.30;;
71655;SDS011;59497;48.798;8.816;2023-05-10T04:46:44;1.90;;;1.27;;
71655;SDS011;59497;48.798;8.816;2023-05-10T04:49:09;1.40;;;1.30;;
71655;SDS011;59497;48.798;8.816;2023-05-10T04:51:34;1.80;;;1.70;;
71655;SDS011;59497;48.798;8.816;2023-05-10T04:53:59;1.07;;;0.97;;
71655;SDS011;59497;48.798;8.816;2023-05-10T04:56:25;1.30;;;1.20;;
71655;SDS011;59497;48.798;8.816;2023-05-10T04:58:50;1.17;;;0.83;;
71655;SDS011;59497;48.798;8.816;2023-05-10T05:01:15;1.70;;;1.10;;
71655;SDS011;59497;48.798;8.816;2023-05-10T05:03:40;1.27;;;1.17;;
71655;SDS011;59497;48.798;8.816;2023-05-10T05:06:06;0.87;;;0.80;;
71655;SDS011;59497;48.798;8.816;2023-05-10T05:08:31;1.07;;;0.97;;
71655;SDS011;59497;48.798;8.816;2023-05-10T05:10:56;2.53;;;1.07;;
71655;SDS011;59497;48.798;8.816;2023-05-10T05:13:21;2.53;;;1.47;;
71655;SDS011;59497;48.798;8.816;2023-05-10T05:15:47;2.73;;;1.23;;
71655;SDS011;59497;48.798;8.816;2023-05-10T05:18:12;2.00;;;1.27;;
71655;SDS011;59497;48.798;8.816;2023-05-10T05:20:37;1.77;;;1.67;;
71655;SDS011;59497;48.798;8.816;2023-05-10T05:23:02;1.60;;;1.10;;
71655;SDS011;59497;48.798;8.816;2023-05-10T05:25:27;2.50;;;1.30;;
71655;SDS011;59497;48.798;8.816;2023-05-10T05:27:53;1.70;;;1.60;;
71655;SDS011;59497;48.798;8.816;2023-05-10T05:30:18;1.53;;;1.30;;
71655;SDS011;59497;48.798;8.816;2023-05-10T05:32:43;2.37;;;1.20;;
71655;SDS011;59497;48.798;8.816;2023-05-10T05:35:08;1.10;;;0.90;;
71655;SDS011;59497;48.798;8.816;2023-05-10T05:37:33;2.30;;;1.30;;
71655;SDS011;59497;48.798;8.816;2023-05-10T05:39:59;2.33;;;1.20;;
71655;SDS011;59497;48.798;8.816;2023-05-10T05:42:26;2.15;;;1.50;;
71655;SDS011;59497;48.798;8.816;2023-05-10T05:44:51;1.57;;;1.40;;
71655;SDS011;59497;48.798;8.816;2023-05-10T05:47:16;1.20;;;1.08;;
71655;SDS011;59497;48.798;8.816;2023-05-10T05:49:42;2.58;;;2.13;;
71655;SDS011;59497;48.798;8.816;2023-05-10T05:52:07;1.63;;;1.33;;
71655;SDS011;59497;48.798;8.816;2023-05-10T05:54:32;1.60;;;1.20;;
71655;SDS011;59497;48.798;8.816;2023-05-10T05:56:58;3.80;;;1.50;;
71655;SDS011;59497;48.798;8.816;2023-05-10T05:59:23;3.50;;;1.40;;
71655;SDS011;59497;48.798;8.816;2023-05-10T06:01:48;1.57;;;1.37;;
71655;SDS011;59497;48.798;8.816;2023-05-10T06:04:14;1.20;;;0.90;;
71655;SDS011;59497;48.798;8.816;2023-05-10T06:06:39;1.92;;;1.40;;
71655;SDS011;59497;48.798;8.816;2023-05-10T06:09:04;1.40;;;1.30;;
71655;SDS011;59497;48.798;8.816;2023-05-10T06:11:29;1.57;;;1.10;;
71655;SDS011;59497;48.798;8.816;2023-05-10T06:13:57;1.33;;;1.23;;
71655;SDS011;59497;48.798;8.816;2023-05-10T06:16:22;1.67;;;1.40;;
71655;SDS011;59497;48.798;8.816;2023-05-10T06:18:47;2.20;;;0.80;;
71655;SDS011;59497;48.798;8.816;2023-05-10T06:21:12;2.45;;;1.50;;
71655;SDS011;59497;48.798;8.816;2023-05-10T06:23:37;1.73;;;1.00;;
71655;SDS011;59497;48.798;8.816;2023-05-10T06:26:03;1.57;;;1.47;;
71655;SDS011;59497;48.798;8.816;2023-05-10T06:28:28;2.10;;;1.10;;
71655;SDS011;59497;48.798;8.816;2023-05-10T06:30:53;4.07;;;1.53;;
71655;SDS011;59497;48.798;8.816;2023-05-10T06:33:18;1.40;;;1.20;;
71655;SDS011;59497;48.798;8.816;2023-05-10T06:35:43;0.80;;;0.80;;
71655;SDS011;59497;48.798;8.816;2023-05-10T06:38:09;1.40;;;1.30;;
71655;SDS011;59497;48.798;8.816;2023-05-10T06:40:34;2.77;;;1.07;;
71655;SDS011;59497;48.798;8.816;2023-05-10T06:42:59;1.27;;;0.90;;
71655;SDS011;59497;48.798;8.816;2023-05-10T06:45:24;1.87;;;1.00;;
71655;SDS011;59497;48.798;8.816;2023-05-10T06:47:49;1.13;;;0.80;;
71655;SDS011;59497;48.798;8.816;2023-05-10T06:50:15;0.93;;;0.63;;
71655;SDS011;59497;48.798;8.816;2023-05-10T06:52:40;1.90;;;0.60;;
71655;SDS011;59497;48.798;8.816;2023-05-10T06:55:05;1.37;;;1.00;;
71655;SDS011;59497;48.798;8.816;2023-05-10T06:57:31;1.80;;;1.13;;
71655;SDS011;59497;48.798;8.816;2023-05-10T06:59:58;3.38;;;1.17;;
71655;SDS011;59497;48.798;8.816;2023-05-10T07:02:23;1.00;;;0.80;;
71655;SDS011;59497;48.798;8.816;2023-05-10T07:04:48;1.10;;;1.00;;
71655;SDS011;59497;48.798;8.816;2023-05-10T07:07:14;1.17;;;0.73;;
71655;SDS011;59497;48.798;8.816;2023-05-10T07:09:39;1.77;;;1.67;;
71655;SDS011;59497;48.798;8.816;2023-05-10T07:12:04;1.37;;;0.70;;
71655;SDS011;59497;48.798;8.816;2023-05-10T07:14:29;0.90;;;0.90;;
71655;SDS011;59497;48.798;8.816;2023-05-10T07:16:54;0.83;;;0.63;;
71655;SDS011;59497;48.798;8.816;2023-05-10T07:19:20;0.97;;;0.93;;
71655;SDS011;59497;48.798;8.816;2023-05-10T07:21:45;0.60;;;0.60;;
71655;SDS011;59497;48.798;8.816;2023-05-10T07:24:10;1.02;;;0.90;;
71655;SDS011;59497;48.798;8.816;2023-05-10T07:26:35;1.70;;;0.77;;
71655;SDS011;59497;48.798;8.816;2023-05-10T07:29:00;1.33;;;0.60;;
71655;SDS011;59497;48.798;8.816;2023-05-10T07:31:26;1.15;;;0.80;;
71655;SDS011;59497;48.798;8.816;2023-05-10T07:33:51;0.50;;;0.50;;
71655;SDS011;59497;48.798;8.816;2023-05-10T07:36:16;0.60;;;0.60;;
71655;SDS011;59497;48.798;8.816;2023-05-10T07:38:41;1.50;;;1.03;;
71655;SDS011;59497;48.798;8.816;2023-05-10T07:41:06;0.80;;;0.70;;
71655;SDS011;59497;48.798;8.816;2023-05-10T07:43:31;1.03;;;0.83;;
71655;SDS011;59497;48.798;8.816;2023-05-10T07:45:57;0.83;;;0.70;;
71655;SDS011;59497;48.798;8.816;2023-05-10T07:48:22;0.93;;;0.93;;
71655;SDS011;59497;48.798;8.816;2023-05-10T07:50:47;0.70;;;0.70;;
71655;SDS011;59497;48.798;8.816;2023-05-10T07:53:13;1.67;;;0.90;;
71655;SDS011;59497;48.798;8.816;2023-05-10T07:55:38;1.43;;;0.80;;
71655;SDS011;59497;48.798;8.816;2023-05-10T07:58:03;1.00;;;0.73;;
71655;SDS011;59497;48.798;8.816;2023-05-10T08:00:28;1.27;;;0.60;;
71655;SDS011;59497;48.798;8.816;2023-05-10T08:02:54;0.60;;;0.60;;
71655;SDS011;59497;48.798;8.816;2023-05-10T08:05:19;0.70;;;0.60;;
71655;SDS011;59497;48.798;8.816;2023-05-10T08:07:44;0.40;;;0.40;;
71655;SDS011;59497;48.798;8.816;2023-05-10T08:10:10;0.47;;;0.47;;
71655;SDS011;59497;48.798;8.816;2023-05-10T08:12:36;0.57;;;0.57;;
71655;SDS011;59497;48.798;8.816;2023-05-10T08:15:01;0.43;;;0.43;;
71655;SDS011;59497;48.798;8.816;2023-05-10T08:17:26;0.63;;;0.63;;
71655;SDS011;59497;48.798;8.816;2023-05-10T08:19:52;0.43;;;0.43;;
71655;SDS011;59497;48.798;8.816;2023-05-10T08:22:17;0.90;;;0.30;;
71655;SDS011;59497;48.798;8.816;2023-05-10T08:24:42;0.83;;;0.40;;
71655;SDS011;59497;48.798;8.816;2023-05-10T08:27:08;1.07;;;0.40;;
71655;SDS011;59497;48.798;8.816;2023-05-10T08:29:33;0.50;;;0.50;;
71655;SDS011;59497;48.798;8.816;2023-05-10T08:31:58;0.60;;;0.60;;
71655;SDS011;59497;48.798;8.816;2023-05-10T08:34:23;0.43;;;0.43;;
71655;SDS011;59497;48.798;8.816;2023-05-10T08:36:48;1.23;;;0.50;;
71655;SDS011;59497;48.798;8.816;2023-05-10T08:39:13;0.93;;;0.60;;
71655;SDS011;59497;48.798;8.816;2023-05-10T08:41:39;1.43;;;0.80;;
71655;SDS011;59497;48.798;8.816;2023-05-10T08:44:05;0.73;;;0.73;;
71655;SDS011;59497;48.798;8.816;2023-05-10T08:46:33;0.68;;;0.40;;
71655;SDS011;59497;48.798;8.816;2023-05-10T08:49:00;0.30;;;0.30;;
71655;SDS011;59497;48.798;8.816;2023-05-10T08:51:26;0.50;;;0.47;;
71655;SDS011;59497;48.798;8.816;2023-05-10T08:53:52;1.33;;;0.45;;
71655;SDS011;59497;48.798;8.816;2023-05-10T08:56:17;0.30;;;0.30;;
71655;SDS011;59497;48.798;8.816;2023-05-10T08:58:43;0.80;;;0.80;;
71655;SDS011;59497;48.798;8.816;2023-05-10T09:01:08;0.98;;;0.52;;
71655;SDS011;59497;48.798;8.816;2023-05-10T09:03:34;0.87;;;0.70;;
71655;SDS011;59497;48.798;8.816;2023-05-10T09:06:00;1.37;;;0.50;;
71655;SDS011;59497;48.798;8.816;2023-05-10T09:08:25;0.75;;;0.40;;
71655;SDS011;59497;48.798;8.816;2023-05-10T09:10:50;0.83;;;0.63;;
71655;SDS011;59497;48.798;8.816;2023-05-10T09:13:16;0.60;;;0.53;;
71655;SDS011;59497;48.798;8.816;2023-05-10T09:15:42;0.53;;;0.53;;
71655;SDS011;59497;48.798;8.816;2023-05-10T09:18:08;2.47;;;0.70;;
71655;SDS011;59497;48.798;8.816;2023-05-10T09:20:33;0.50;;;0.50;;
71655;SDS011;59497;48.798;8.816;2023-05-10T09:22:58;0.50;;;0.50;;
71655;SDS011;59497;48.798;8.816;2023-05-10T09:25:23;2.10;;;0.67;;
71655;SDS011;59497;48.798;8.816;2023-05-10T09:27:48;0.50;;;0.50;;
71655;SDS011;59497;48.798;8.816;2023-05-10T09:30:32;0.87;;;0.57;;
71655;SDS011;59497;48.798;8.816;2023-05-10T09:32:57;0.80;;;0.40;;
71655;SDS011;59497;48.798;8.816;2023-05-10T09:35:23;0.40;;;0.35;;
71655;SDS011;59497;48.798;8.816;2023-05-10T09:37:50;0.30;;;0.30;;
71655;SDS011;59497;48.798;8.816;2023-05-10T09:40:19;1.20;;;0.37;;
71655;SDS011;59497;48.798;8.816;2023-05-10T09:42:54;0.90;;;0.65;;
71655;SDS011;59497;48.798;8.816;2023-05-10T09:45:20;0.80;;;0.80;;
71655;SDS011;59497;48.798;8.816;2023-05-10T09:47:45;1.53;;;0.60;;
71655;SDS011;59497;48.798;8.816;2023-05-10T09:50:11;0.70;;;0.70;;
71655;SDS011;59497;48.798;8.816;2023-05-10T09:52:46;1.70;;;0.60;;
71655;SDS011;59497;48.798;8.816;2023-05-10T09:55:11;0.82;;;0.52;;
71655;SDS011;59497;48.798;8.816;2023-05-10T09:57:37;0.80;;;0.47;;
71655;SDS011;59497;48.798;8.816;2023-05-10T10:00:02;0.37;;;0.37;;
71655;SDS011;59497;48.798;8.816;2023-05-10T10:02:30;0.50;;;0.50;;
71655;SDS011;59497;48.798;8.816;2023-05-10T10:04:55;0.97;;;0.90;;
71655;SDS011;59497;48.798;8.816;2023-05-10T10:07:22;0.50;;;0.40;;
71655;SDS011;59497;48.798;8.816;2023-05-10T10:09:47;0.73;;;0.50;;
71655;SDS011;59497;48.798;8.816;2023-05-10T10:12:12;0.77;;;0.57;;
71655;SDS011;59497;48.798;8.816;2023-05-10T10:14:37;1.13;;;0.33;;
71655;SDS011;59497;48.798;8.816;2023-05-10T10:17:03;0.80;;;0.23;;
71655;SDS011;59497;48.798;8.816;2023-05-10T10:19:28;0.40;;;0.30;;
71655;SDS011;59497;48.798;8.816;2023-05-10T10:21:53;1.60;;;0.40;;
71655;SDS011;59497;48.798;8.816;2023-05-10T10:24:18;0.40;;;0.40;;
71655;SDS011;59497;48.798;8.816;2023-05-10T10:26:44;1.67;;;0.40;;
71655;SDS011;59497;48.798;8.816;2023-05-10T10:29:23;1.03;;;0.40;;
71655;SDS011;59497;48.798;8.816;2023-05-10T10:34:33;0.68;;;0.28;;
71655;SDS011;59497;48.798;8.816;2023-05-10T10:36:59;2.10;;;0.33;;
71655;SDS011;59497;48.798;8.816;2023-05-10T10:39:28;1.77;;;0.55;;
71655;SDS011;59497;48.798;8.816;2023-05-10T10:41:54;1.23;;;0.40;;
71655;SDS011;59497;48.798;8.816;2023-05-10T10:49:23;2.05;;;0.60;;
71655;SDS011;59497;48.798;8.816;2023-05-10T10:54:32;0.60;;;0.57;;
71655;SDS011;59497;48.798;8.816;2023-05-10T10:57:13;1.83;;;0.47;;
71655;SDS011;59497;48.798;8.816;2023-05-10T10:59:41;0.60;;;0.50;;
71655;SDS011;59497;48.798;8.816;2023-05-10T11:02:07;1.10;;;0.60;;
71655;SDS011;59497;48.798;8.816;2023-05-10T11:04:41;2.87;;;0.47;;
71655;SDS011;59497;48.798;8.816;2023-05-10T11:07:16;1.58;;;0.90;;
71655;SDS011;59497;48.798;8.816;2023-05-10T11:09:42;1.20;;;0.90;;
71655;SDS011;59497;48.798;8.816;2023-05-10T11:12:08;1.53;;;0.80;;
71655;SDS011;59497;48.798;8.816;2023-05-10T11:14:33;1.27;;;0.60;;
71655;SDS011;59497;48.798;8.816;2023-05-10T11:16:59;0.97;;;0.70;;
71655;SDS011;59497;48.798;8.816;2023-05-10T11:19:27;1.30;;;1.20;;
71655;SDS011;59497;48.798;8.816;2023-05-10T11:24:29;1.00;;;0.60;;
71655;SDS011;59497;48.798;8.816;2023-05-10T11:26:55;2.13;;;1.07;;
71655;SDS011;59497;48.798;8.816;2023-05-10T11:29:20;3.10;;;1.25;;
71655;SDS011;59497;48.798;8.816;2023-05-10T11:31:46;1.77;;;1.00;;
71655;SDS011;59497;48.798;8.816;2023-05-10T11:34:22;1.27;;;0.63;;
71655;SDS011;59497;48.798;8.816;2023-05-10T11:36:50;1.25;;;0.80;;
71655;SDS011;59497;48.798;8.816;2023-05-10T11:39:15;1.40;;;0.98;;
71655;SDS011;59497;48.798;8.816;2023-05-10T11:41:41;0.77;;;0.70;;
71655;SDS011;59497;48.798;8.816;2023-05-10T11:44:06;7.83;;;0.97;;
71655;SDS011;59497;48.798;8.816;2023-05-10T11:46:33;0.80;;;0.50;;
71655;SDS011;59497;48.798;8.816;2023-05-10T11:48:59;1.50;;;0.60;;
71655;SDS011;59497;48.798;8.816;2023-05-10T11:51:32;1.75;;;0.55;;
71655;SDS011;59497;48.798;8.816;2023-05-10T11:53:58;2.13;;;0.68;;
71655;SDS011;59497;48.798;8.816;2023-05-10T11:56:23;0.57;;;0.53;;
71655;SDS011;59497;48.798;8.816;2023-05-10T11:58:54;1.02;;;0.60;;
71655;SDS011;59497;48.798;8.816;2023-05-10T12:01:20;2.40;;;0.60;;
71655;SDS011;59497;48.798;8.816;2023-05-10T12:03:46;1.20;;;0.70;;
71655;SDS011;59497;48.798;8.816;2023-05-10T12:06:11;2.00;;;0.80;;
71655;SDS011;59497;48.798;8.816;2023-05-10T12:08:36;2.30;;;0.50;;
71655;SDS011;59497;48.798;8.816;2023-05-10T12:11:09;4.03;;;1.00;;
71655;SDS011;59497;48.798;8.816;2023-05-10T12:13:39;0.70;;;0.65;;
71655;SDS011;59497;48.798;8.816;2023-05-10T12:16:18;1.35;;;0.90;;
71655;SDS011;59497;48.798;8.816;2023-05-10T12:18:43;1.33;;;0.93;;
71655;SDS011;59497;48.798;8.816;2023-05-10T12:21:12;1.42;;;0.90;;
71655;SDS011;59497;48.798;8.816;2023-05-10T12:23:37;1.30;;;0.87;;
71655;SDS011;59497;48.798;8.816;2023-05-10T12:26:03;1.40;;;0.80;;
71655;SDS011;59497;48.798;8.816;2023-05-10T12:28:31;3.53;;;1.00;;
71655;SDS011;59497;48.798;8.816;2023-05-10T12:30:57;1.83;;;0.70;;
71655;SDS011;59497;48.798;8.816;2023-05-10T12:33:22;3.83;;;0.90;;
71655;SDS011;59497;48.798;8.816;2023-05-10T12:35:51;4.72;;;0.82;;
71655;SDS011;59497;48.798;8.816;2023-05-10T12:38:31;1.70;;;0.85;;
71655;SDS011;59497;48.798;8.816;2023-05-10T12:40:57;0.80;;;0.80;;
71655;SDS011;59497;48.798;8.816;2023-05-10T12:43:22;0.80;;;0.80;;
71655;SDS011;59497;48.798;8.816;2023-05-10T12:45:48;3.50;;;0.73;;
71655;SDS011;59497;48.798;8.816;2023-05-10T12:48:14;2.08;;;0.70;;
71655;SDS011;59497;48.798;8.816;2023-05-10T12:50:39;1.43;;;0.67;;
71655;SDS011;59497;48.798;8.816;2023-05-10T12:53:04;1.63;;;0.60;;
71655;SDS011;59497;48.798;8.816;2023-05-10T12:55:29;0.47;;;0.30;;
71655;SDS011;59497;48.798;8.816;2023-05-10T12:57:54;2.93;;;0.80;;
71655;SDS011;59497;48.798;8.816;2023-05-10T13:00:20;1.57;;;0.67;;
71655;SDS011;59497;48.798;8.816;2023-05-10T13:02:45;0.90;;;0.63;;
71655;SDS011;59497;48.798;8.816;2023-05-10T13:05:10;0.70;;;0.70;;
71655;SDS011;59497;48.798;8.816;2023-05-10T13:07:37;2.15;;;0.90;;
71655;SDS011;59497;48.798;8.816;2023-05-10T13:10:02;2.57;;;0.83;;
71655;SDS011;59497;48.798;8.816;2023-05-10T13:12:27;2.10;;;0.50;;
71655;SDS011;59497;48.798;8.816;2023-05-10T13:14:52;2.17;;;0.90;;
71655;SDS011;59497;48.798;8.816;2023-05-10T13:17:18;1.97;;;0.73;;
71655;SDS011;59497;48.798;8.816;2023-05-10T13:19:43;1.23;;;0.73;;
71655;SDS011;59497;48.798;8.816;2023-05-10T13:22:08;1.07;;;0.63;;
71655;SDS011;59497;48.798;8.816;2023-05-10T13:24:33;2.07;;;1.00;;
71655;SDS011;59497;48.798;8.816;2023-05-10T13:26:58;1.20;;;1.10;;
71655;SDS011;59497;48.798;8.816;2023-05-10T13:29:24;3.25;;;1.05;;
71655;SDS011;59497;48.798;8.816;2023-05-10T13:31:49;1.27;;;0.70;;
71655;SDS011;59497;48.798;8.816;2023-05-10T13:34:14;0.93;;;0.80;;
71655;SDS011;59497;48.798;8.816;2023-05-10T13:36:39;2.50;;;0.70;;
71655;SDS011;59497;48.798;8.816;2023-05-10T13:39:04;1.10;;;1.10;;
71655;SDS011;59497;48.798;8.816;2023-05-10T13:41:30;0.90;;;0.87;;
71655;SDS011;59497;48.798;8.816;2023-05-10T13:43:55;4.67;;;1.10;;
71655;SDS011;59497;48.798;8.816;2023-05-10T13:46:20;1.93;;;1.37;;
71655;SDS011;59497;48.798;8.816;2023-05-10T13:48:45;1.80;;;0.60;;
71655;SDS011;59497;48.798;8.816;2023-05-10T13:51:10;1.17;;;0.90;;
71655;SDS011;59497;48.798;8.816;2023-05-10T13:53:36;1.77;;;1.00;;
71655;SDS011;59497;48.798;8.816;2023-05-10T13:56:01;2.30;;;0.70;;
71655;SDS011;59497;48.798;8.816;2023-05-10T13:58:27;0.70;;;0.50;;
71655;SDS011;59497;48.798;8.816;2023-05-10T14:00:52;1.15;;;0.80;;
71655;SDS011;59497;48.798;8.816;2023-05-10T14:03:18;1.93;;;0.67;;
71655;SDS011;59497;48.798;8.816;2023-05-10T14:05:43;1.17;;;0.70;;
71655;SDS011;59497;48.798;8.816;2023-05-10T14:08:09;0.60;;;0.60;;
71655;SDS011;59497;48.798;8.816;2023-05-10T14:10:35;2.28;;;0.80;;
71655;SDS011;59497;48.798;8.816;2023-05-10T14:13:01;1.97;;;0.93;;
71655;SDS011;59497;48.798;8.816;2023-05-10T14:15:28;1.42;;;0.75;;
71655;SDS011;59497;48.798;8.816;2023-05-10T14:17:53;1.10;;;0.67;;
71655;SDS011;59497;48.798;8.816;2023-05-10T14:20:18;0.80;;;0.80;;
71655;SDS011;59497;48.798;8.816;2023-05-10T14:22:43;1.33;;;0.60;;
71655;SDS011;59497;48.798;8.816;2023-05-10T14:25:08;2.50;;;0.67;;
71655;SDS011;59497;48.798;8.816;2023-05-10T14:27:34;1.93;;;0.53;;
71655;SDS011;59497;48.798;8.816;2023-05-10T14:29:59;0.60;;;0.60;;
71655;SDS011;59497;48.798;8.816;2023-05-10T14:32:24;2.40;;;0.83;;
71655;SDS011;59497;48.798;8.816;2023-05-10T14:34:49;1.17;;;1.07;;
71655;SDS011;59497;48.798;8.816;2023-05-10T14:37:15;1.20;;;0.65;;
71655;SDS011;59497;48.798;8.816;2023-05-10T14:39:40;0.70;;;0.70;;
71655;SDS011;59497;48.798;8.816;2023-05-10T14:42:07;2.17;;;0.80;;
71655;SDS011;59497;48.798;8.816;2023-05-10T14:44:32;1.70;;;0.40;;
71655;SDS011;59497;48.798;8.816;2023-05-10T14:46:57;2.83;;;0.67;;
71655;SDS011;59497;48.798;8.816;2023-05-10T14:49:22;0.80;;;0.80;;
71655;SDS011;59497;48.798;8.816;2023-05-10T14:51:50;0.90;;;0.68;;
71655;SDS011;59497;48.798;8.816;2023-05-10T14:54:15;0.60;;;0.50;;
71655;SDS011;59497;48.798;8.816;2023-05-10T14:56:40;4.85;;;2.58;;
71655;SDS011;59497;48.798;8.816;2023-05-10T14:59:06;5.75;;;5.10;;
71655;SDS011;59497;48.798;8.816;2023-05-10T15:01:32;1.40;;;1.30;;
71655;SDS011;59497;48.798;8.816;2023-05-10T15:03:57;1.75;;;1.30;;
71655;SDS011;59497;48.798;8.816;2023-05-10T15:06:23;1.20;;;1.10;;
71655;SDS011;59497;48.798;8.816;2023-05-10T15:08:49;3.77;;;1.23;;
71655;SDS011;59497;48.798;8.816;2023-05-10T15:11:15;1.95;;;1.00;;